sensor_id;sensor_type;location;lat;lon;timestamp;P1;durP1;ratioP1;P2;durP2;ratioP2
44536;SDS011;30245;51.966;6.292;2022-10-15T00:00:44;13.30;;;6.10;;
44536;SDS011;30245;51.966;6.292;2022-10-15T00:03:10;14.95;;;7.63;;
44536;SDS011;30245;51.966;6.292;2022-10-15T00:05:36;9.43;;;6.90;;
44536;SDS011;30245;51.966;6.292;2022-10-15T00:08:03;13.48;;;7.07;;
44536;SDS011;30245;51.966;6.292;2022-10-15T00:10:29;10.93;;;6.90;;
44536;SDS011;30245;51.966;6.292;2022-10-15T00:12:55;7.22;;;6.53;;
44536;SDS011;30245;51.966;6.292;2022-10-15T00:15:20;13.55;;;7.25;;
44536;SDS011;30245;51.966;6.292;2022-10-15T00:17:46;17.77;;;6.80;;
44536;SDS011;30245;51.966;6.292;2022-10-15T00:20:11;17.98;;;6.97;;
44536;SDS011;30245;51.966;6.292;2022-10-15T00:22:38;25.38;;;6.40;;
44536;SDS011;30245;51.966;6.292;2022-10-15T00:25:04;14.43;;;6.63;;
44536;SDS011;30245;51.966;6.292;2022-10-15T00:27:30;24.50;;;5.50;;
44536;SDS011;30245;51.966;6.292;2022-10-15T00:29:57;10.70;;;5.53;;
44536;SDS011;30245;51.966;6.292;2022-10-15T00:32:24;10.52;;;5.03;;
44536;SDS011;30245;51.966;6.292;2022-10-15T00:34:50;13.15;;;6.03;;
44536;SDS011;30245;51.966;6.292;2022-10-15T00:37:16;12.70;;;6.00;;
44536;SDS011;30245;51.966;6.292;2022-10-15T00:39:42;7.05;;;5.72;;
44536;SDS011;30245;51.966;6.292;2022-10-15T00:42:08;6.93;;;5.83;;
44536;SDS011;30245;51.966;6.292;2022-10-15T00:50:00;6.63;;;6.00;;
44536;SDS011;30245;51.966;6.292;2022-10-15T00:52:29;6.97;;;6.27;;
44536;SDS011;30245;51.966;6.292;2022-10-15T00:55:06;6.50;;;5.90;;
44536;SDS011;30245;51.966;6.292;2022-10-15T00:57:32;7.25;;;6.13;;
44536;SDS011;30245;51.966;6.292;2022-10-15T01:00:00;9.40;;;5.97;;
44536;SDS011;30245;51.966;6.292;2022-10-15T01:02:31;6.77;;;6.17;;
44536;SDS011;30245;51.966;6.292;2022-10-15T01:04:56;6.70;;;5.60;;
44536;SDS011;30245;51.966;6.292;2022-10-15T01:07:22;8.37;;;5.07;;
44536;SDS011;30245;51.966;6.292;2022-10-15T01:09:48;8.80;;;6.03;;
44536;SDS011;30245;51.966;6.292;2022-10-15T01:15:18;7.50;;;5.73;;
44536;SDS011;30245;51.966;6.292;2022-10-15T01:37:11;8.23;;;5.43;;
44536;SDS011;30245;51.966;6.292;2022-10-15T01:39:45;6.60;;;5.73;;
44536;SDS011;30245;51.966;6.292;2022-10-15T01:42:29;7.07;;;6.03;;
44536;SDS011;30245;51.966;6.292;2022-10-15T01:45:05;7.53;;;6.83;;
44536;SDS011;30245;51.966;6.292;2022-10-15T01:47:40;7.87;;;6.97;;
44536;SDS011;30245;51.966;6.292;2022-10-15T01:50:10;7.40;;;6.70;;
44536;SDS011;30245;51.966;6.292;2022-10-15T01:52:39;8.55;;;5.53;;
44536;SDS011;30245;51.966;6.292;2022-10-15T01:55:07;7.30;;;5.63;;
44536;SDS011;30245;51.966;6.292;2022-10-15T01:57:36;10.37;;;6.07;;
44536;SDS011;30245;51.966;6.292;2022-10-15T02:00:04;6.32;;;5.72;;
44536;SDS011;30245;51.966;6.292;2022-10-15T02:02:31;7.13;;;5.53;;
44536;SDS011;30245;51.966;6.292;2022-10-15T02:04:56;8.03;;;6.37;;
44536;SDS011;30245;51.966;6.292;2022-10-15T02:18:01;5.57;;;5.07;;
44536;SDS011;30245;51.966;6.292;2022-10-15T02:25:40;5.83;;;5.30;;
44536;SDS011;30245;51.966;6.292;2022-10-15T02:28:07;6.37;;;5.70;;
44536;SDS011;30245;51.966;6.292;2022-10-15T02:30:34;6.10;;;5.60;;
44536;SDS011;30245;51.966;6.292;2022-10-15T02:35:28;4.43;;;4.03;;
44536;SDS011;30245;51.966;6.292;2022-10-15T02:37:54;4.60;;;4.20;;
44536;SDS011;30245;51.966;6.292;2022-10-15T02:40:26;5.13;;;4.70;;
44536;SDS011;30245;51.966;6.292;2022-10-15T02:42:53;5.57;;;4.95;;
44536;SDS011;30245;51.966;6.292;2022-10-15T02:45:20;6.60;;;5.63;;
44536;SDS011;30245;51.966;6.292;2022-10-15T02:47:45;6.17;;;5.03;;
44536;SDS011;30245;51.966;6.292;2022-10-15T02:50:11;6.47;;;5.87;;
44536;SDS011;30245;51.966;6.292;2022-10-15T02:52:37;6.50;;;5.57;;
44536;SDS011;30245;51.966;6.292;2022-10-15T02:55:02;5.77;;;5.27;;
44536;SDS011;30245;51.966;6.292;2022-10-15T02:57:28;6.27;;;5.77;;
44536;SDS011;30245;51.966;6.292;2022-10-15T02:59:54;5.30;;;4.83;;
44536;SDS011;30245;51.966;6.292;2022-10-15T03:02:19;6.23;;;5.63;;
44536;SDS011;30245;51.966;6.292;2022-10-15T03:04:45;5.23;;;4.77;;
44536;SDS011;30245;51.966;6.292;2022-10-15T03:07:11;6.40;;;5.60;;
44536;SDS011;30245;51.966;6.292;2022-10-15T03:09:38;7.30;;;5.80;;
44536;SDS011;30245;51.966;6.292;2022-10-15T03:12:03;7.10;;;5.90;;
44536;SDS011;30245;51.966;6.292;2022-10-15T03:14:29;7.93;;;7.20;;
44536;SDS011;30245;51.966;6.292;2022-10-15T03:16:55;6.80;;;6.10;;
44536;SDS011;30245;51.966;6.292;2022-10-15T03:19:20;8.60;;;7.53;;
44536;SDS011;30245;51.966;6.292;2022-10-15T03:21:46;8.40;;;7.13;;
44536;SDS011;30245;51.966;6.292;2022-10-15T03:24:11;10.17;;;8.10;;
44536;SDS011;30245;51.966;6.292;2022-10-15T03:26:37;10.90;;;7.50;;
44536;SDS011;30245;51.966;6.292;2022-10-15T03:29:03;7.93;;;6.77;;
44536;SDS011;30245;51.966;6.292;2022-10-15T03:31:28;11.57;;;7.73;;
44536;SDS011;30245;51.966;6.292;2022-10-15T03:33:54;8.57;;;7.57;;
44536;SDS011;30245;51.966;6.292;2022-10-15T03:36:19;8.77;;;7.93;;
44536;SDS011;30245;51.966;6.292;2022-10-15T03:38:45;9.67;;;8.13;;
44536;SDS011;30245;51.966;6.292;2022-10-15T03:41:10;10.37;;;8.33;;
44536;SDS011;30245;51.966;6.292;2022-10-15T03:43:36;9.90;;;7.80;;
44536;SDS011;30245;51.966;6.292;2022-10-15T03:46:02;9.33;;;8.10;;
44536;SDS011;30245;51.966;6.292;2022-10-15T03:48:29;11.40;;;9.03;;
44536;SDS011;30245;51.966;6.292;2022-10-15T03:50:54;10.13;;;9.03;;
44536;SDS011;30245;51.966;6.292;2022-10-15T03:53:20;10.90;;;9.07;;
44536;SDS011;30245;51.966;6.292;2022-10-15T03:55:46;11.77;;;9.27;;
44536;SDS011;30245;51.966;6.292;2022-10-15T03:58:12;11.20;;;9.77;;
44536;SDS011;30245;51.966;6.292;2022-10-15T04:00:41;11.73;;;9.63;;
44536;SDS011;30245;51.966;6.292;2022-10-15T04:03:07;11.70;;;9.40;;
44536;SDS011;30245;51.966;6.292;2022-10-15T04:05:33;13.93;;;10.73;;
44536;SDS011;30245;51.966;6.292;2022-10-15T04:07:59;15.23;;;11.43;;
44536;SDS011;30245;51.966;6.292;2022-10-15T04:10:24;13.77;;;10.63;;
44536;SDS011;30245;51.966;6.292;2022-10-15T04:12:50;15.67;;;11.50;;
44536;SDS011;30245;51.966;6.292;2022-10-15T04:15:15;17.37;;;12.33;;
44536;SDS011;30245;51.966;6.292;2022-10-15T04:17:41;17.37;;;11.63;;
44536;SDS011;30245;51.966;6.292;2022-10-15T04:20:07;17.37;;;12.40;;
44536;SDS011;30245;51.966;6.292;2022-10-15T04:22:32;15.03;;;11.63;;
44536;SDS011;30245;51.966;6.292;2022-10-15T04:24:58;16.60;;;12.97;;
44536;SDS011;30245;51.966;6.292;2022-10-15T04:27:24;19.77;;;12.57;;
44536;SDS011;30245;51.966;6.292;2022-10-15T04:29:49;17.70;;;13.27;;
44536;SDS011;30245;51.966;6.292;2022-10-15T04:32:15;17.00;;;13.60;;
44536;SDS011;30245;51.966;6.292;2022-10-15T04:34:41;17.87;;;13.27;;
44536;SDS011;30245;51.966;6.292;2022-10-15T04:37:07;17.47;;;13.57;;
44536;SDS011;30245;51.966;6.292;2022-10-15T04:39:33;16.03;;;13.13;;
44536;SDS011;30245;51.966;6.292;2022-10-15T04:41:58;15.73;;;12.83;;
44536;SDS011;30245;51.966;6.292;2022-10-15T04:44:24;16.53;;;14.00;;
44536;SDS011;30245;51.966;6.292;2022-10-15T04:46:49;17.70;;;13.45;;
44536;SDS011;30245;51.966;6.292;2022-10-15T04:49:15;19.30;;;14.40;;
44536;SDS011;30245;51.966;6.292;2022-10-15T04:51:40;18.87;;;13.80;;
44536;SDS011;30245;51.966;6.292;2022-10-15T04:54:06;17.80;;;11.93;;
44536;SDS011;30245;51.966;6.292;2022-10-15T04:56:31;15.77;;;12.53;;
44536;SDS011;30245;51.966;6.292;2022-10-15T04:58:57;16.60;;;12.90;;
44536;SDS011;30245;51.966;6.292;2022-10-15T05:01:22;15.63;;;12.70;;
44536;SDS011;30245;51.966;6.292;2022-10-15T05:03:48;17.42;;;12.68;;
44536;SDS011;30245;51.966;6.292;2022-10-15T05:06:15;16.23;;;12.77;;
44536;SDS011;30245;51.966;6.292;2022-10-15T05:11:10;15.17;;;12.20;;
44536;SDS011;30245;51.966;6.292;2022-10-15T05:13:39;15.03;;;12.20;;
44536;SDS011;30245;51.966;6.292;2022-10-15T05:16:08;18.93;;;13.87;;
44536;SDS011;30245;51.966;6.292;2022-10-15T05:18:34;17.27;;;12.37;;
44536;SDS011;30245;51.966;6.292;2022-10-15T05:21:00;17.13;;;13.18;;
44536;SDS011;30245;51.966;6.292;2022-10-15T05:23:26;14.13;;;11.82;;
44536;SDS011;30245;51.966;6.292;2022-10-15T05:25:51;17.13;;;12.93;;
44536;SDS011;30245;51.966;6.292;2022-10-15T05:28:17;17.47;;;14.70;;
44536;SDS011;30245;51.966;6.292;2022-10-15T05:30:43;22.80;;;17.60;;
44536;SDS011;30245;51.966;6.292;2022-10-15T05:33:09;19.92;;;14.30;;
44536;SDS011;30245;51.966;6.292;2022-10-15T05:35:35;23.48;;;15.65;;
44536;SDS011;30245;51.966;6.292;2022-10-15T05:38:01;29.33;;;17.02;;
44536;SDS011;30245;51.966;6.292;2022-10-15T05:40:28;24.20;;;17.00;;
44536;SDS011;30245;51.966;6.292;2022-10-15T05:42:54;23.52;;;17.50;;
44536;SDS011;30245;51.966;6.292;2022-10-15T05:45:20;22.65;;;17.23;;
44536;SDS011;30245;51.966;6.292;2022-10-15T05:47:46;27.02;;;21.27;;
44536;SDS011;30245;51.966;6.292;2022-10-15T05:50:12;24.05;;;19.90;;
44536;SDS011;30245;51.966;6.292;2022-10-15T05:52:37;28.63;;;20.73;;
44536;SDS011;30245;51.966;6.292;2022-10-15T05:55:03;31.75;;;21.20;;
44536;SDS011;30245;51.966;6.292;2022-10-15T05:57:29;27.80;;;19.10;;
44536;SDS011;30245;51.966;6.292;2022-10-15T05:59:54;27.25;;;19.48;;
44536;SDS011;30245;51.966;6.292;2022-10-15T06:02:20;29.20;;;19.98;;
44536;SDS011;30245;51.966;6.292;2022-10-15T06:04:46;32.30;;;23.42;;
44536;SDS011;30245;51.966;6.292;2022-10-15T06:07:12;34.95;;;22.63;;
44536;SDS011;30245;51.966;6.292;2022-10-15T06:09:38;33.05;;;24.50;;
44536;SDS011;30245;51.966;6.292;2022-10-15T06:12:03;45.13;;;27.42;;
44536;SDS011;30245;51.966;6.292;2022-10-15T06:14:29;38.67;;;26.65;;
44536;SDS011;30245;51.966;6.292;2022-10-15T06:16:55;40.67;;;26.88;;
44536;SDS011;30245;51.966;6.292;2022-10-15T06:19:20;35.17;;;25.52;;
44536;SDS011;30245;51.966;6.292;2022-10-15T06:21:46;32.70;;;24.48;;
44536;SDS011;30245;51.966;6.292;2022-10-15T06:24:11;36.55;;;25.27;;
44536;SDS011;30245;51.966;6.292;2022-10-15T06:26:37;34.10;;;24.98;;
44536;SDS011;30245;51.966;6.292;2022-10-15T06:29:03;37.55;;;24.02;;
44536;SDS011;30245;51.966;6.292;2022-10-15T06:31:29;32.20;;;25.40;;
44536;SDS011;30245;51.966;6.292;2022-10-15T06:33:56;37.63;;;26.02;;
44536;SDS011;30245;51.966;6.292;2022-10-15T06:36:21;32.30;;;26.02;;
44536;SDS011;30245;51.966;6.292;2022-10-15T06:38:49;34.37;;;24.70;;
44536;SDS011;30245;51.966;6.292;2022-10-15T06:41:15;34.22;;;24.80;;
44536;SDS011;30245;51.966;6.292;2022-10-15T06:43:41;36.95;;;25.85;;
44536;SDS011;30245;51.966;6.292;2022-10-15T06:46:07;44.20;;;28.10;;
44536;SDS011;30245;51.966;6.292;2022-10-15T06:48:33;34.28;;;25.02;;
44536;SDS011;30245;51.966;6.292;2022-10-15T06:50:59;44.95;;;29.17;;
44536;SDS011;30245;51.966;6.292;2022-10-15T06:53:26;37.40;;;26.48;;
44536;SDS011;30245;51.966;6.292;2022-10-15T06:55:56;34.47;;;23.80;;
44536;SDS011;30245;51.966;6.292;2022-10-15T06:58:23;34.53;;;25.50;;
44536;SDS011;30245;51.966;6.292;2022-10-15T07:00:49;34.17;;;24.10;;
44536;SDS011;30245;51.966;6.292;2022-10-15T07:03:14;36.72;;;22.88;;
44536;SDS011;30245;51.966;6.292;2022-10-15T07:05:40;32.00;;;22.40;;
44536;SDS011;30245;51.966;6.292;2022-10-15T07:08:06;32.95;;;22.15;;
44536;SDS011;30245;51.966;6.292;2022-10-15T07:10:31;28.55;;;20.40;;
44536;SDS011;30245;51.966;6.292;2022-10-15T07:13:00;34.15;;;24.10;;
44536;SDS011;30245;51.966;6.292;2022-10-15T07:15:27;32.80;;;22.60;;
44536;SDS011;30245;51.966;6.292;2022-10-15T07:17:54;33.15;;;22.52;;
44536;SDS011;30245;51.966;6.292;2022-10-15T07:20:20;27.08;;;20.88;;
44536;SDS011;30245;51.966;6.292;2022-10-15T07:22:46;28.27;;;22.00;;
44536;SDS011;30245;51.966;6.292;2022-10-15T07:25:12;25.95;;;18.27;;
44536;SDS011;30245;51.966;6.292;2022-10-15T07:27:38;28.80;;;18.15;;
44536;SDS011;30245;51.966;6.292;2022-10-15T07:30:05;29.27;;;19.77;;
44536;SDS011;30245;51.966;6.292;2022-10-15T07:32:31;32.47;;;21.63;;
44536;SDS011;30245;51.966;6.292;2022-10-15T07:34:57;30.08;;;21.25;;
44536;SDS011;30245;51.966;6.292;2022-10-15T07:37:23;28.13;;;21.30;;
44536;SDS011;30245;51.966;6.292;2022-10-15T07:39:48;21.58;;;16.50;;
44536;SDS011;30245;51.966;6.292;2022-10-15T07:42:14;25.45;;;17.90;;
44536;SDS011;30245;51.966;6.292;2022-10-15T07:44:39;22.27;;;17.40;;
44536;SDS011;30245;51.966;6.292;2022-10-15T07:47:05;27.15;;;17.80;;
44536;SDS011;30245;51.966;6.292;2022-10-15T07:49:31;25.50;;;18.35;;
44536;SDS011;30245;51.966;6.292;2022-10-15T07:51:57;25.85;;;18.90;;
44536;SDS011;30245;51.966;6.292;2022-10-15T07:54:22;29.73;;;19.60;;
44536;SDS011;30245;51.966;6.292;2022-10-15T07:56:48;27.52;;;21.38;;
44536;SDS011;30245;51.966;6.292;2022-10-15T07:59:14;20.58;;;17.00;;
44536;SDS011;30245;51.966;6.292;2022-10-15T08:01:39;22.25;;;17.35;;
44536;SDS011;30245;51.966;6.292;2022-10-15T08:04:05;27.95;;;17.95;;
44536;SDS011;30245;51.966;6.292;2022-10-15T08:06:30;23.73;;;18.08;;
44536;SDS011;30245;51.966;6.292;2022-10-15T08:08:56;24.27;;;18.38;;
44536;SDS011;30245;51.966;6.292;2022-10-15T08:11:22;23.73;;;18.42;;
44536;SDS011;30245;51.966;6.292;2022-10-15T08:13:48;25.85;;;18.73;;
44536;SDS011;30245;51.966;6.292;2022-10-15T08:16:14;22.88;;;16.77;;
44536;SDS011;30245;51.966;6.292;2022-10-15T08:18:40;23.00;;;16.30;;
44536;SDS011;30245;51.966;6.292;2022-10-15T08:21:07;22.38;;;15.73;;
44536;SDS011;30245;51.966;6.292;2022-10-15T08:23:33;28.50;;;17.83;;
44536;SDS011;30245;51.966;6.292;2022-10-15T08:25:59;27.45;;;18.52;;
44536;SDS011;30245;51.966;6.292;2022-10-15T08:28:26;21.60;;;15.20;;
44536;SDS011;30245;51.966;6.292;2022-10-15T08:30:52;20.33;;;14.98;;
44536;SDS011;30245;51.966;6.292;2022-10-15T08:33:18;20.35;;;16.10;;
44536;SDS011;30245;51.966;6.292;2022-10-15T08:35:43;23.15;;;15.68;;
44536;SDS011;30245;51.966;6.292;2022-10-15T08:38:10;19.90;;;15.90;;
44536;SDS011;30245;51.966;6.292;2022-10-15T08:40:36;19.73;;;14.50;;
44536;SDS011;30245;51.966;6.292;2022-10-15T08:43:01;19.88;;;15.00;;
44536;SDS011;30245;51.966;6.292;2022-10-15T08:45:29;18.77;;;15.35;;
44536;SDS011;30245;51.966;6.292;2022-10-15T08:48:03;17.33;;;13.80;;
44536;SDS011;30245;51.966;6.292;2022-10-15T08:53:37;19.40;;;14.73;;
44536;SDS011;30245;51.966;6.292;2022-10-15T08:56:14;19.23;;;15.48;;
44536;SDS011;30245;51.966;6.292;2022-10-15T08:58:52;19.70;;;15.10;;
44536;SDS011;30245;51.966;6.292;2022-10-15T09:14:33;16.80;;;11.70;;
44536;SDS011;30245;51.966;6.292;2022-10-15T09:17:03;14.75;;;12.88;;
44536;SDS011;30245;51.966;6.292;2022-10-15T09:19:31;16.63;;;13.73;;
44536;SDS011;30245;51.966;6.292;2022-10-15T09:22:00;13.68;;;12.18;;
44536;SDS011;30245;51.966;6.292;2022-10-15T09:24:28;16.45;;;12.38;;
44536;SDS011;30245;51.966;6.292;2022-10-15T09:32:47;15.32;;;11.93;;
44536;SDS011;30245;51.966;6.292;2022-10-15T09:43:35;13.27;;;10.70;;
44536;SDS011;30245;51.966;6.292;2022-10-15T09:46:04;15.95;;;11.82;;
44536;SDS011;30245;51.966;6.292;2022-10-15T09:48:31;14.30;;;11.82;;
44536;SDS011;30245;51.966;6.292;2022-10-15T09:51:02;11.85;;;9.63;;
44536;SDS011;30245;51.966;6.292;2022-10-15T09:53:43;12.23;;;10.15;;
44536;SDS011;30245;51.966;6.292;2022-10-15T09:56:34;12.35;;;10.45;;
44536;SDS011;30245;51.966;6.292;2022-10-15T09:59:02;13.55;;;10.68;;
44536;SDS011;30245;51.966;6.292;2022-10-15T10:01:29;12.45;;;11.10;;
44536;SDS011;30245;51.966;6.292;2022-10-15T10:04:12;13.40;;;11.02;;
44536;SDS011;30245;51.966;6.292;2022-10-15T10:06:51;12.60;;;10.40;;
44536;SDS011;30245;51.966;6.292;2022-10-15T10:09:20;13.85;;;10.30;;
44536;SDS011;30245;51.966;6.292;2022-10-15T10:11:50;10.55;;;9.52;;
44536;SDS011;30245;51.966;6.292;2022-10-15T10:14:21;12.45;;;8.93;;
44536;SDS011;30245;51.966;6.292;2022-10-15T10:17:02;10.88;;;7.55;;
44536;SDS011;30245;51.966;6.292;2022-10-15T10:19:29;7.85;;;7.05;;
44536;SDS011;30245;51.966;6.292;2022-10-15T10:22:04;8.18;;;7.30;;
44536;SDS011;30245;51.966;6.292;2022-10-15T10:24:40;6.65;;;6.03;;
44536;SDS011;30245;51.966;6.292;2022-10-15T10:27:16;7.97;;;7.18;;
44536;SDS011;30245;51.966;6.292;2022-10-15T10:29:47;8.95;;;7.22;;
44536;SDS011;30245;51.966;6.292;2022-10-15T10:32:21;9.20;;;5.65;;
44536;SDS011;30245;51.966;6.292;2022-10-15T10:34:51;7.50;;;6.50;;
44536;SDS011;30245;51.966;6.292;2022-10-15T10:37:17;9.30;;;6.72;;
44536;SDS011;30245;51.966;6.292;2022-10-15T10:39:43;7.32;;;6.05;;
44536;SDS011;30245;51.966;6.292;2022-10-15T10:44:41;7.07;;;5.60;;
44536;SDS011;30245;51.966;6.292;2022-10-15T10:47:17;7.72;;;6.07;;
44536;SDS011;30245;51.966;6.292;2022-10-15T10:49:46;7.22;;;6.30;;
44536;SDS011;30245;51.966;6.292;2022-10-15T10:57:12;7.00;;;6.15;;
44536;SDS011;30245;51.966;6.292;2022-10-15T10:59:49;8.15;;;7.35;;
44536;SDS011;30245;51.966;6.292;2022-10-15T11:02:17;7.25;;;5.90;;
44536;SDS011;30245;51.966;6.292;2022-10-15T11:04:43;6.82;;;6.10;;
44536;SDS011;30245;51.966;6.292;2022-10-15T11:07:21;7.82;;;5.95;;
44536;SDS011;30245;51.966;6.292;2022-10-15T11:15:26;8.52;;;4.93;;
44536;SDS011;30245;51.966;6.292;2022-10-15T11:24:29;4.85;;;4.15;;
44536;SDS011;30245;51.966;6.292;2022-10-15T11:29:52;5.07;;;4.43;;
44536;SDS011;30245;51.966;6.292;2022-10-15T11:33:11;5.53;;;4.13;;
44536;SDS011;30245;51.966;6.292;2022-10-15T11:35:34;4.70;;;4.18;;
44536;SDS011;30245;51.966;6.292;2022-10-15T11:54:26;4.97;;;4.50;;
44536;SDS011;30245;51.966;6.292;2022-10-15T11:57:00;4.90;;;3.17;;
44536;SDS011;30245;51.966;6.292;2022-10-15T11:59:32;3.43;;;3.13;;
44536;SDS011;30245;51.966;6.292;2022-10-15T12:04:43;3.40;;;3.10;;
44536;SDS011;30245;51.966;6.292;2022-10-15T12:07:36;4.03;;;2.95;;
44536;SDS011;30245;51.966;6.292;2022-10-15T12:10:16;2.90;;;2.40;;
44536;SDS011;30245;51.966;6.292;2022-10-15T12:20:57;4.53;;;2.45;;
44536;SDS011;30245;51.966;6.292;2022-10-15T12:23:24;1.75;;;1.13;;
44536;SDS011;30245;51.966;6.292;2022-10-15T12:28:53;1.30;;;0.70;;
44536;SDS011;30245;51.966;6.292;2022-10-15T12:31:21;2.40;;;1.02;;
44536;SDS011;30245;51.966;6.292;2022-10-15T12:33:55;1.65;;;0.98;;
44536;SDS011;30245;51.966;6.292;2022-10-15T12:36:23;1.80;;;0.90;;
44536;SDS011;30245;51.966;6.292;2022-10-15T12:38:57;2.50;;;1.52;;
44536;SDS011;30245;51.966;6.292;2022-10-15T12:44:19;1.92;;;1.00;;
44536;SDS011;30245;51.966;6.292;2022-10-15T12:46:53;1.63;;;1.00;;
44536;SDS011;30245;51.966;6.292;2022-10-15T12:51:50;2.72;;;1.20;;
44536;SDS011;30245;51.966;6.292;2022-10-15T12:57:01;1.45;;;0.70;;
44536;SDS011;30245;51.966;6.292;2022-10-15T12:59:30;1.17;;;0.70;;
44536;SDS011;30245;51.966;6.292;2022-10-15T13:02:34;1.90;;;0.70;;
44536;SDS011;30245;51.966;6.292;2022-10-15T13:05:06;1.17;;;0.55;;
44536;SDS011;30245;51.966;6.292;2022-10-15T13:07:42;1.67;;;0.43;;
44536;SDS011;30245;51.966;6.292;2022-10-15T13:10:15;1.25;;;0.60;;
44536;SDS011;30245;51.966;6.292;2022-10-15T13:12:52;1.00;;;0.60;;
44536;SDS011;30245;51.966;6.292;2022-10-15T13:15:22;3.78;;;0.77;;
44536;SDS011;30245;51.966;6.292;2022-10-15T13:17:50;1.23;;;0.50;;
44536;SDS011;30245;51.966;6.292;2022-10-15T13:20:37;2.25;;;0.73;;
44536;SDS011;30245;51.966;6.292;2022-10-15T13:28:43;1.13;;;0.70;;
44536;SDS011;30245;51.966;6.292;2022-10-15T13:31:23;0.88;;;0.50;;
44536;SDS011;30245;51.966;6.292;2022-10-15T13:33:52;0.93;;;0.50;;
44536;SDS011;30245;51.966;6.292;2022-10-15T13:36:23;0.80;;;0.50;;
44536;SDS011;30245;51.966;6.292;2022-10-15T13:38:55;2.25;;;0.63;;
44536;SDS011;30245;51.966;6.292;2022-10-15T13:41:36;0.80;;;0.50;;
44536;SDS011;30245;51.966;6.292;2022-10-15T13:44:04;1.27;;;0.47;;
44536;SDS011;30245;51.966;6.292;2022-10-15T13:46:31;1.00;;;0.57;;
44536;SDS011;30245;51.966;6.292;2022-10-15T13:49:01;0.98;;;0.52;;
44536;SDS011;30245;51.966;6.292;2022-10-15T13:51:37;0.65;;;0.45;;
44536;SDS011;30245;51.966;6.292;2022-10-15T13:54:07;1.00;;;0.50;;
44536;SDS011;30245;51.966;6.292;2022-10-15T13:56:35;0.70;;;0.40;;
44536;SDS011;30245;51.966;6.292;2022-10-15T13:59:02;1.33;;;0.50;;
44536;SDS011;30245;51.966;6.292;2022-10-15T14:01:28;0.68;;;0.45;;
44536;SDS011;30245;51.966;6.292;2022-10-15T14:03:58;0.75;;;0.50;;
44536;SDS011;30245;51.966;6.292;2022-10-15T14:08:56;0.90;;;0.50;;
44536;SDS011;30245;51.966;6.292;2022-10-15T14:13:53;0.82;;;0.68;;
44536;SDS011;30245;51.966;6.292;2022-10-15T14:18:47;1.17;;;0.70;;
44536;SDS011;30245;51.966;6.292;2022-10-15T14:21:34;1.10;;;0.60;;
44536;SDS011;30245;51.966;6.292;2022-10-15T14:24:17;1.50;;;1.10;;
44536;SDS011;30245;51.966;6.292;2022-10-15T14:26:45;2.65;;;0.70;;
44536;SDS011;30245;51.966;6.292;2022-10-15T14:29:27;2.55;;;0.90;;
44536;SDS011;30245;51.966;6.292;2022-10-15T14:31:59;2.70;;;0.60;;
44536;SDS011;30245;51.966;6.292;2022-10-15T14:37:00;1.95;;;1.00;;
44536;SDS011;30245;51.966;6.292;2022-10-15T14:39:31;1.67;;;0.70;;
44536;SDS011;30245;51.966;6.292;2022-10-15T14:44:38;1.20;;;0.95;;
44536;SDS011;30245;51.966;6.292;2022-10-15T14:49:44;1.60;;;1.23;;
44536;SDS011;30245;51.966;6.292;2022-10-15T14:52:11;2.45;;;1.00;;
44536;SDS011;30245;51.966;6.292;2022-10-15T14:54:41;3.90;;;0.90;;
44536;SDS011;30245;51.966;6.292;2022-10-15T14:57:16;1.00;;;0.70;;
44536;SDS011;30245;51.966;6.292;2022-10-15T14:59:55;1.20;;;0.60;;
44536;SDS011;30245;51.966;6.292;2022-10-15T15:02:22;1.38;;;0.63;;
44536;SDS011;30245;51.966;6.292;2022-10-15T15:07:30;0.90;;;0.50;;
44536;SDS011;30245;51.966;6.292;2022-10-15T15:09:56;0.95;;;0.50;;
44536;SDS011;30245;51.966;6.292;2022-10-15T15:12:22;1.00;;;0.60;;
44536;SDS011;30245;51.966;6.292;2022-10-15T15:14:50;1.20;;;0.50;;
44536;SDS011;30245;51.966;6.292;2022-10-15T15:17:17;1.17;;;0.50;;
44536;SDS011;30245;51.966;6.292;2022-10-15T15:19:48;1.00;;;0.55;;
44536;SDS011;30245;51.966;6.292;2022-10-15T15:22:16;3.08;;;0.60;;
44536;SDS011;30245;51.966;6.292;2022-10-15T15:24:47;0.95;;;0.40;;
44536;SDS011;30245;51.966;6.292;2022-10-15T15:27:17;0.98;;;0.60;;
44536;SDS011;30245;51.966;6.292;2022-10-15T15:29:49;1.35;;;0.55;;
44536;SDS011;30245;51.966;6.292;2022-10-15T15:32:15;1.00;;;0.57;;
44536;SDS011;30245;51.966;6.292;2022-10-15T15:34:41;1.00;;;0.60;;
44536;SDS011;30245;51.966;6.292;2022-10-15T15:37:25;1.35;;;0.82;;
44536;SDS011;30245;51.966;6.292;2022-10-15T15:39:54;1.00;;;0.50;;
44536;SDS011;30245;51.966;6.292;2022-10-15T15:42:21;1.73;;;0.73;;
44536;SDS011;30245;51.966;6.292;2022-10-15T15:44:48;1.35;;;0.60;;
44536;SDS011;30245;51.966;6.292;2022-10-15T15:47:14;1.23;;;0.75;;
44536;SDS011;30245;51.966;6.292;2022-10-15T15:49:40;2.97;;;0.80;;
44536;SDS011;30245;51.966;6.292;2022-10-15T15:52:06;1.17;;;0.40;;
44536;SDS011;30245;51.966;6.292;2022-10-15T15:54:37;1.20;;;0.50;;
44536;SDS011;30245;51.966;6.292;2022-10-15T15:57:02;0.95;;;0.57;;
44536;SDS011;30245;51.966;6.292;2022-10-15T15:59:28;1.20;;;0.43;;
44536;SDS011;30245;51.966;6.292;2022-10-15T16:01:54;1.13;;;0.40;;
44536;SDS011;30245;51.966;6.292;2022-10-15T16:04:19;0.80;;;0.55;;
44536;SDS011;30245;51.966;6.292;2022-10-15T16:06:45;0.82;;;0.40;;
44536;SDS011;30245;51.966;6.292;2022-10-15T16:09:13;0.63;;;0.22;;
44536;SDS011;30245;51.966;6.292;2022-10-15T16:11:40;1.40;;;0.40;;
44536;SDS011;30245;51.966;6.292;2022-10-15T16:14:05;1.08;;;0.40;;
44536;SDS011;30245;51.966;6.292;2022-10-15T16:16:31;0.75;;;0.43;;
44536;SDS011;30245;51.966;6.292;2022-10-15T16:18:57;0.90;;;0.30;;
44536;SDS011;30245;51.966;6.292;2022-10-15T16:21:23;2.00;;;0.35;;
44536;SDS011;30245;51.966;6.292;2022-10-15T16:23:50;1.83;;;0.30;;
44536;SDS011;30245;51.966;6.292;2022-10-15T16:26:15;0.60;;;0.40;;
44536;SDS011;30245;51.966;6.292;2022-10-15T16:28:42;1.73;;;0.50;;
44536;SDS011;30245;51.966;6.292;2022-10-15T16:31:21;0.73;;;0.50;;
44536;SDS011;30245;51.966;6.292;2022-10-15T16:33:53;1.83;;;0.93;;
44536;SDS011;30245;51.966;6.292;2022-10-15T16:36:19;0.90;;;0.35;;
44536;SDS011;30245;51.966;6.292;2022-10-15T16:38:45;1.77;;;0.50;;
44536;SDS011;30245;51.966;6.292;2022-10-15T16:41:12;0.95;;;0.40;;
44536;SDS011;30245;51.966;6.292;2022-10-15T16:43:39;2.13;;;0.40;;
44536;SDS011;30245;51.966;6.292;2022-10-15T16:46:04;2.38;;;0.63;;
44536;SDS011;30245;51.966;6.292;2022-10-15T16:48:31;1.60;;;0.80;;
44536;SDS011;30245;51.966;6.292;2022-10-15T16:51:04;1.08;;;0.50;;
44536;SDS011;30245;51.966;6.292;2022-10-15T16:53:32;1.40;;;0.40;;
44536;SDS011;30245;51.966;6.292;2022-10-15T16:56:00;1.50;;;0.65;;
44536;SDS011;30245;51.966;6.292;2022-10-15T16:58:28;1.27;;;0.50;;
44536;SDS011;30245;51.966;6.292;2022-10-15T17:00:58;0.85;;;0.30;;
44536;SDS011;30245;51.966;6.292;2022-10-15T17:03:28;1.40;;;0.60;;
44536;SDS011;30245;51.966;6.292;2022-10-15T17:05:55;1.58;;;0.50;;
44536;SDS011;30245;51.966;6.292;2022-10-15T17:08:21;0.77;;;0.40;;
44536;SDS011;30245;51.966;6.292;2022-10-15T17:10:48;1.05;;;0.50;;
44536;SDS011;30245;51.966;6.292;2022-10-15T17:13:13;1.63;;;0.90;;
44536;SDS011;30245;51.966;6.292;2022-10-15T17:15:40;1.92;;;0.95;;
44536;SDS011;30245;51.966;6.292;2022-10-15T17:18:05;2.00;;;0.65;;
44536;SDS011;30245;51.966;6.292;2022-10-15T17:20:31;1.45;;;0.40;;
44536;SDS011;30245;51.966;6.292;2022-10-15T17:22:58;1.75;;;0.30;;
44536;SDS011;30245;51.966;6.292;2022-10-15T17:25:24;2.67;;;0.45;;